OJAI/AMM METAR and TAF weather

Enter ICAO airport designator
Station Type Date Time Source
OJAI METAR 2019/04/20 18:00 UTC NOAA

OJAI 201800Z 26008KT 6000 FEW025 11/06 Q1016 NOSIG


Station Type Date Time Source
OJAI Decoded METAR 2019/04/20 18:00 UTC NOAA

Queen Alia Airport, Jordan (OJAI) 31-40N 035-58E
Apr 20, 2019 - 02:00 PM EDT / 2019.04.20 1800 UTC
Wind: from the W (260 degrees) at 9 MPH (8 KT):0
Visibility: 3 mile(s):0
Sky conditions: mostly clear
Temperature: 51 F (11 C)
Dew Point: 42 F (6 C)
Relative Humidity: 71%
Pressure (altimeter): 30.00 in. Hg (1016 hPa)
ob: OJAI 201800Z 26008KT 6000 FEW025 11/06 Q1016 NOSIG
cycle: 18

Station Type Date Time Source
OJAI TAF 2019/04/20 18:15 UTC NOAA

TAF TAF OJAI 201700Z 2018/2124 27014KT 5000 HZ SCT030 PROB30
TEMPO 2018/2105 4000 -RA BR BKN025
BECMG 2105/2107 28016G26KT 2000 BLDU PROB40
TEMPO 2107/2116 TSRAGR FEW020CB SCT025 BKN030
BECMG 2116/2118 29012KT 5000 BR SCT030

Example: see airport list